Time;durP1;ratioP1;P1;durP2;ratioP2;P2;SDS_P1;SDS_P2;PMS_P1;PMS_P2;Temp;Humidity;BMP_temperature;BMP_pressure;BME280_temperature;BME280_humidity;BME280_pressure;Samples;Min_cycle;Max_cycle;Signal;HPM_P1;HPM_P2
2023/08/28 00:00:03;;;;;;;2.30;2.10;;;16.10;99.90;;;;;;4999013;28;20444;-81
2023/08/28 00:02:45;;;;;;;2.10;2.00;;;16.00;99.90;;;;;;4999609;28;20471;-77
2023/08/28 00:05:17;;;;;;;6.13;2.77;;;16.00;99.90;;;;;;4996670;28;20448;-80
2023/08/28 00:07:54;;;;;;;3.50;3.30;;;16.00;99.90;;;;;;4996367;28;20523;-80
2023/08/28 00:10:34;;;;;;;3.33;3.13;;;16.00;99.90;;;;;;4996124;28;20459;-80
2023/08/28 00:13:05;;;;;;;2.73;2.63;;;15.90;99.90;;;;;;4996391;28;20429;-80
2023/08/28 00:15:34;;;;;;;2.40;2.30;;;16.10;99.90;;;;;;4998986;28;20456;-78
2023/08/28 00:18:15;;;;;;;;;;;;;;;;;;;;;
2023/08/28 00:20:45;;;;;;;5.60;2.83;;;15.80;99.90;;;;;;4997266;28;20523;-78
2023/08/28 00:23:19;;;;;;;5.37;3.43;;;15.80;99.90;;;;;;4999054;28;20655;-80
2023/08/28 00:25:48;;;;;;;2.83;2.63;;;15.90;99.90;;;;;;5001023;28;20441;-80
2023/08/28 00:28:17;;;;;;;4.27;3.97;;;15.80;99.90;;;;;;5000045;28;20476;-78
2023/08/28 00:30:55;;;;;;;5.83;3.63;;;15.90;99.90;;;;;;5001515;28;21081;-78
2023/08/28 00:33:30;;;;;;;3.57;3.27;;;16.10;99.90;;;;;;5002577;28;20472;-77
2023/08/28 00:36:05;;;;;;;7.50;3.10;;;15.80;99.90;;;;;;5004744;28;20500;-79
2023/08/28 00:38:38;;;;;;;6.30;3.67;;;15.80;99.90;;;;;;5013320;28;20531;-78
2023/08/28 00:41:07;;;;;;;2.67;2.47;;;15.80;99.90;;;;;;5014756;28;20486;-81
2023/08/28 00:43:39;;;;;;;6.50;3.57;;;15.80;99.90;;;;;;5012745;28;21054;-78
2023/08/28 00:46:14;;;;;;;2.80;2.60;;;15.80;99.90;;;;;;5014048;28;20520;-78
2023/08/28 00:51:30;;;;;;;3.60;3.30;;;15.80;99.90;;;;;;5012519;28;20439;-78
2023/08/28 00:54:08;;;;;;;3.83;2.53;;;15.80;99.90;;;;;;5012278;28;20572;-79
2023/08/28 00:56:44;;;;;;;2.87;2.60;;;15.80;99.90;;;;;;4990128;28;20468;-78
2023/08/28 00:59:20;;;;;;;2.73;2.53;;;15.70;99.90;;;;;;5003516;28;20480;-81
2023/08/28 01:01:52;;;;;;;2.40;2.30;;;15.70;99.90;;;;;;5001033;28;20463;-80
2023/08/28 01:04:28;;;;;;;2.60;2.50;;;15.60;99.90;;;;;;5001947;28;20478;-78
2023/08/28 01:07:12;;;;;;;2.57;2.37;;;15.60;99.90;;;;;;5002386;28;20456;-78
2023/08/28 01:10:06;;;;;;;3.70;2.70;;;15.60;99.90;;;;;;5005093;28;20881;-78
2023/08/28 01:12:58;;;;;;;4.33;2.50;;;15.60;99.90;;;;;;5005173;28;21003;-78
2023/08/28 01:15:49;;;;;;;3.03;2.40;;;15.60;99.90;;;;;;5006277;28;20846;-80
2023/08/28 01:18:30;;;;;;;2.60;2.33;;;15.60;99.90;;;;;;5005873;28;20428;-80
2023/08/28 01:21:03;;;;;;;2.83;2.63;;;15.60;99.90;;;;;;5004967;28;20480;-79
2023/08/28 01:23:48;;;;;;;2.63;2.43;;;15.60;99.90;;;;;;5004612;28;20499;-78
2023/08/28 01:26:29;;;;;;;2.17;2.07;;;15.60;99.90;;;;;;5001987;28;20482;-79
2023/08/28 01:29:41;;;;;;;2.87;2.67;;;15.60;99.90;;;;;;4998737;28;20436;-79
2023/08/28 01:32:14;;;;;;;2.60;2.07;;;15.60;99.90;;;;;;5001150;28;20464;-79
2023/08/28 01:38:10;;;;;;;3.07;2.77;;;15.60;99.90;;;;;;4982596;28;20531;-78
2023/08/28 01:40:53;;;;;;;2.80;2.20;;;15.60;99.90;;;;;;5000845;28;20476;-79
2023/08/28 01:43:27;;;;;;;2.30;2.20;;;15.60;99.90;;;;;;5005617;28;20479;-79
2023/08/28 01:46:01;;;;;;;2.20;2.10;;;15.60;99.90;;;;;;5004423;28;20460;-76
2023/08/28 01:48:35;;;;;;;2.60;2.40;;;15.60;99.90;;;;;;4998129;28;20456;-80
2023/08/28 01:51:07;;;;;;;2.20;2.10;;;15.60;99.90;;;;;;4995105;28;20471;-79
2023/08/28 01:53:41;;;;;;;1.87;1.80;;;15.60;99.90;;;;;;4994583;28;21019;-81
2023/08/28 01:56:34;;;;;;;2.60;2.40;;;15.60;99.90;;;;;;4995936;28;20493;-82
2023/08/28 01:59:29;;;;;;;2.23;2.00;;;15.50;99.90;;;;;;4998063;28;20483;-79
2023/08/28 02:01:59;;;;;;;2.43;2.20;;;15.50;99.90;;;;;;4996121;28;20433;-79
2023/08/28 02:04:31;;;;;;;2.70;2.50;;;15.50;99.90;;;;;;4996504;28;21065;-81
2023/08/28 02:07:13;;;;;;;2.90;2.70;;;15.50;99.90;;;;;;4999411;28;20472;-79
2023/08/28 02:09:50;;;;;;;2.40;2.20;;;15.50;99.90;;;;;;4996321;28;20577;-80
2023/08/28 02:12:21;;;;;;;2.60;2.20;;;15.50;99.90;;;;;;4997667;28;20527;-78
2023/08/28 02:15:07;;;;;;;4.87;2.20;;;15.50;99.90;;;;;;4996767;28;20541;-80
2023/08/28 02:17:39;;;;;;;3.00;2.70;;;15.50;99.90;;;;;;4996288;28;20483;-80
2023/08/28 02:20:22;;;;;;;3.83;2.23;;;15.40;99.90;;;;;;4998055;28;20444;-78
2023/08/28 02:22:51;;;;;;;2.40;2.30;;;15.50;99.90;;;;;;4996637;28;20456;-79
2023/08/28 02:25:23;;;;;;;3.53;2.50;;;15.40;99.90;;;;;;4997021;28;20480;-79
2023/08/28 02:27:55;;;;;;;2.47;2.27;;;15.40;99.90;;;;;;4998063;28;20540;-78
2023/08/28 02:30:36;;;;;;;4.63;2.97;;;15.40;99.90;;;;;;4997983;28;20503;-79
2023/08/28 02:33:32;;;;;;;3.27;2.47;;;15.30;99.90;;;;;;5001237;28;20448;-78
2023/08/28 02:36:28;;;;;;;2.50;2.30;;;15.30;99.90;;;;;;5000505;28;20457;-79
2023/08/28 02:39:24;;;;;;;2.50;2.40;;;15.30;99.90;;;;;;5011130;28;20448;-79
2023/08/28 02:42:01;;;;;;;5.37;2.37;;;15.30;99.90;;;;;;5011466;28;20448;-78
2023/08/28 02:44:45;;;;;;;3.37;3.07;;;15.30;99.90;;;;;;5011213;28;20480;-78
2023/08/28 02:47:26;;;;;;;2.50;2.40;;;15.30;99.90;;;;;;5012056;28;20472;-78
2023/08/28 02:50:11;;;;;;;2.63;2.53;;;15.30;99.90;;;;;;5011566;28;20449;-79
2023/08/28 02:52:40;;;;;;;3.70;2.80;;;15.30;99.90;;;;;;5011332;28;20568;-78
2023/08/28 02:55:17;;;;;;;2.97;2.60;;;15.60;99.90;;;;;;5009095;28;21059;-79
2023/08/28 02:57:50;;;;;;;3.07;2.87;;;15.30;99.90;;;;;;5010900;28;20472;-81
2023/08/28 03:00:21;;;;;;;5.77;3.10;;;15.30;99.90;;;;;;5011487;28;20491;-78
2023/08/28 03:03:01;;;;;;;3.00;2.80;;;15.30;99.90;;;;;;5011415;28;20838;-80
2023/08/28 03:05:38;;;;;;;2.97;2.70;;;15.30;99.90;;;;;;5014975;28;20475;-77
2023/08/28 03:08:12;;;;;;;2.83;2.63;;;15.30;99.90;;;;;;5012808;28;20460;-78
2023/08/28 03:10:50;;;;;;;2.90;2.70;;;15.30;99.90;;;;;;5010842;28;20455;-78
2023/08/28 03:13:21;;;;;;;3.40;2.87;;;15.30;99.90;;;;;;5000501;28;20818;-79
2023/08/28 03:15:51;;;;;;;5.30;2.90;;;15.30;99.90;;;;;;4997925;28;20451;-81
2023/08/28 03:18:25;;;;;;;3.30;3.10;;;15.30;99.90;;;;;;4996386;28;20539;-79
2023/08/28 03:21:01;;;;;;;2.80;2.60;;;15.30;99.90;;;;;;4995608;28;20456;-78
2023/08/28 03:23:35;;;;;;;3.63;2.73;;;15.30;99.90;;;;;;4993856;28;20518;-81
2023/08/28 03:26:05;;;;;;;3.40;3.20;;;15.30;99.90;;;;;;4994490;28;20459;-80
2023/08/28 03:28:56;;;;;;;2.90;2.63;;;15.30;99.90;;;;;;4994682;28;20439;-81
2023/08/28 03:31:26;;;;;;;2.67;2.30;;;15.30;99.90;;;;;;4994889;28;20487;-79
2023/08/28 03:33:57;;;;;;;2.23;2.13;;;15.20;99.90;;;;;;4993186;28;20535;-79
2023/08/28 03:36:29;;;;;;;2.93;2.73;;;15.20;99.90;;;;;;4993752;28;20555;-79
2023/08/28 03:39:03;;;;;;;2.77;2.60;;;15.20;99.90;;;;;;4993453;28;20459;-77
2023/08/28 03:41:34;;;;;;;2.50;2.20;;;15.20;99.90;;;;;;4995376;28;20451;-78
2023/08/28 03:44:07;;;;;;;2.50;2.40;;;15.20;99.90;;;;;;4995045;28;20842;-78
2023/08/28 03:46:47;;;;;;;;;;;;;;;;;;;;;
2023/08/28 03:49:30;;;;;;;3.00;2.80;;;15.20;99.90;;;;;;4993345;28;20463;-80
2023/08/28 03:52:12;;;;;;;3.37;2.40;;;15.20;99.90;;;;;;4995317;28;20460;-79
2023/08/28 03:54:46;;;;;;;2.50;2.40;;;15.20;99.90;;;;;;4999231;28;20567;-79
2023/08/28 03:57:23;;;;;;;2.87;2.63;;;15.20;99.90;;;;;;4998995;28;20866;-80
2023/08/28 03:59:56;;;;;;;3.37;2.77;;;15.10;99.90;;;;;;4997662;28;20825;-79
2023/08/28 04:02:56;;;;;;;3.10;2.77;;;15.10;99.90;;;;;;4997752;28;20476;-81
2023/08/28 04:05:29;;;;;;;2.87;2.67;;;15.10;99.90;;;;;;4998174;28;20542;-78
2023/08/28 04:08:10;;;;;;;2.80;2.57;;;15.10;99.90;;;;;;4998112;28;20562;-79
2023/08/28 04:10:40;;;;;;;2.50;2.30;;;15.10;99.90;;;;;;4998664;28;20452;-81
2023/08/28 04:13:13;;;;;;;3.33;2.57;;;15.10;99.90;;;;;;5001957;28;20486;-80
2023/08/28 04:15:43;;;;;;;2.83;2.33;;;15.10;99.90;;;;;;5003294;28;20444;-79
2023/08/28 04:18:17;;;;;;;4.80;3.30;;;14.70;99.90;;;;;;5003308;28;20468;-77
2023/08/28 04:20:50;;;;;;;2.97;2.77;;;15.10;99.90;;;;;;5001772;28;20535;-81
2023/08/28 04:23:28;;;;;;;2.63;2.43;;;15.10;99.90;;;;;;5002652;28;20476;-77
2023/08/28 04:26:00;;;;;;;3.07;2.90;;;15.10;99.90;;;;;;5001748;28;20490;-80
2023/08/28 04:28:35;;;;;;;2.23;2.13;;;15.10;99.90;;;;;;5002088;28;20428;-78
2023/08/28 04:31:07;;;;;;;3.90;2.50;;;15.10;99.90;;;;;;5002494;28;20475;-79
2023/08/28 04:33:41;;;;;;;3.17;2.97;;;15.10;99.90;;;;;;5002823;28;20528;-79
2023/08/28 04:36:18;;;;;;;2.40;2.30;;;15.00;99.90;;;;;;5001911;28;20467;-82
2023/08/28 04:38:48;;;;;;;7.40;2.80;;;15.00;99.90;;;;;;5001577;28;20452;-79
2023/08/28 04:41:48;;;;;;;6.20;3.67;;;15.00;99.90;;;;;;5001117;28;20490;-81
2023/08/28 04:44:22;;;;;;;3.67;3.47;;;15.00;99.90;;;;;;4993114;28;20479;-79
2023/08/28 04:46:57;;;;;;;3.30;3.10;;;14.50;99.90;;;;;;5000990;28;20485;-78
2023/08/28 04:49:28;;;;;;;3.20;3.00;;;15.00;99.90;;;;;;5001866;28;20475;-77
2023/08/28 04:52:19;;;;;;;3.10;2.90;;;15.00;99.90;;;;;;5003703;28;20452;-78
2023/08/28 04:54:51;;;;;;;5.17;3.00;;;15.00;99.90;;;;;;5004572;28;20483;-82
2023/08/28 04:57:52;;;;;;;3.57;3.23;;;15.00;99.90;;;;;;5004661;28;20478;-79
2023/08/28 05:00:32;;;;;;;4.17;3.50;;;15.00;99.90;;;;;;5000482;28;20456;-80
2023/08/28 05:03:11;;;;;;;3.57;3.37;;;15.00;99.90;;;;;;4999318;28;20584;-78
2023/08/28 05:06:22;;;;;;;4.20;3.20;;;15.00;99.90;;;;;;4998274;28;20476;-80
2023/08/28 05:09:15;;;;;;;3.50;3.30;;;15.00;99.90;;;;;;5000563;28;20448;-79
2023/08/28 05:11:48;;;;;;;3.57;3.27;;;15.00;99.90;;;;;;5001568;28;20457;-80
2023/08/28 05:14:21;;;;;;;3.57;3.37;;;14.90;99.90;;;;;;5005374;28;20448;-79
2023/08/28 05:16:52;;;;;;;4.73;3.20;;;14.90;99.90;;;;;;5007029;28;20478;-79
2023/08/28 05:19:30;;;;;;;6.17;5.57;;;15.00;99.90;;;;;;5010937;28;20501;-78
2023/08/28 05:22:15;;;;;;;3.70;3.40;;;14.70;99.90;;;;;;5009347;28;20516;-78
2023/08/28 05:24:57;;;;;;;3.53;3.30;;;15.00;99.90;;;;;;4987302;28;20529;-79
2023/08/28 05:27:44;;;;;;;3.77;3.50;;;15.00;99.90;;;;;;4984082;28;20553;-80
2023/08/28 05:30:17;;;;;;;3.97;3.50;;;14.90;99.90;;;;;;5004149;28;20436;-80
2023/08/28 05:32:46;;;;;;;4.07;3.77;;;15.00;99.90;;;;;;4999309;28;20468;-79
2023/08/28 05:35:17;;;;;;;4.13;3.90;;;15.00;99.90;;;;;;5001350;28;20439;-80
2023/08/28 05:37:50;;;;;;;5.13;4.57;;;14.90;99.90;;;;;;5000532;28;20534;-82
2023/08/28 05:40:39;;;;;;;4.73;4.23;;;14.90;99.90;;;;;;4999024;28;20483;-80
2023/08/28 05:43:18;;;;;;;4.30;4.00;;;14.90;99.90;;;;;;4995770;28;20811;-78
2023/08/28 05:45:48;;;;;;;4.30;3.93;;;14.90;99.90;;;;;;4997061;28;20506;-78
2023/08/28 05:48:17;;;;;;;4.33;4.03;;;14.90;99.90;;;;;;4999103;28;20460;-80
2023/08/28 05:53:38;;;;;;;4.60;4.17;;;14.90;99.90;;;;;;5003505;28;20492;-80
2023/08/28 05:56:15;;;;;;;6.70;4.20;;;14.90;99.90;;;;;;5003422;28;20447;-80
2023/08/28 05:58:48;;;;;;;4.70;4.30;;;14.90;99.90;;;;;;5002802;28;20436;-78
2023/08/28 06:01:25;;;;;;;4.93;4.53;;;15.00;99.90;;;;;;5003379;28;20464;-78
2023/08/28 06:04:11;;;;;;;5.10;4.80;;;15.00;99.90;;;;;;5005077;28;20428;-78
2023/08/28 06:09:46;;;;;;;5.00;4.60;;;15.00;99.90;;;;;;4998550;28;20464;-81
2023/08/28 06:12:20;;;;;;;6.20;4.43;;;14.90;99.90;;;;;;5005409;28;20451;-83
2023/08/28 06:14:50;;;;;;;10.87;5.30;;;14.90;99.90;;;;;;5000089;28;20451;-80
2023/08/28 06:17:21;;;;;;;6.17;5.67;;;15.00;99.90;;;;;;5001186;28;20963;-79
2023/08/28 06:19:49;;;;;;;6.40;5.83;;;14.90;99.90;;;;;;4999861;28;20456;-80
2023/08/28 06:22:25;;;;;;;5.80;5.40;;;15.00;99.90;;;;;;4999192;28;20972;-81
2023/08/28 06:24:57;;;;;;;5.47;5.17;;;15.00;99.90;;;;;;4996868;28;20535;-80
2023/08/28 06:27:29;;;;;;;6.10;5.60;;;15.00;99.90;;;;;;4996169;28;20527;-80
2023/08/28 06:30:00;;;;;;;5.57;5.17;;;15.00;99.90;;;;;;4996749;28;20457;-80
2023/08/28 06:32:30;;;;;;;8.70;5.50;;;15.00;99.90;;;;;;4994456;28;21007;-80
2023/08/28 06:35:02;;;;;;;9.20;5.50;;;14.90;99.90;;;;;;4998469;28;20445;-78
2023/08/28 06:37:41;;;;;;;6.13;5.60;;;14.90;99.90;;;;;;4998336;28;20551;-80
2023/08/28 06:40:11;;;;;;;6.37;5.77;;;15.00;99.90;;;;;;5000095;28;20550;-81
2023/08/28 06:42:45;;;;;;;7.33;6.73;;;15.00;99.90;;;;;;5000861;28;20467;-79
2023/08/28 06:45:20;;;;;;;8.30;7.60;;;15.00;99.90;;;;;;4997231;28;20488;-79
2023/08/28 06:47:49;;;;;;;9.57;7.20;;;15.00;99.90;;;;;;4997829;28;20475;-80
2023/08/28 06:50:18;;;;;;;8.90;7.00;;;15.00;99.90;;;;;;4997886;28;20475;-78
2023/08/28 06:52:47;;;;;;;7.00;6.30;;;15.10;99.90;;;;;;4996397;28;20456;-79
2023/08/28 06:55:17;;;;;;;7.70;7.03;;;15.20;99.90;;;;;;4995913;28;20445;-82
2023/08/28 06:57:48;;;;;;;7.67;6.97;;;15.20;99.90;;;;;;4996010;28;20850;-78
2023/08/28 07:00:20;;;;;;;6.93;6.43;;;15.30;99.90;;;;;;4997652;28;20487;-81
2023/08/28 07:02:49;;;;;;;7.87;7.03;;;15.20;99.90;;;;;;4999641;28;20531;-81
2023/08/28 07:05:17;;;;;;;7.40;6.80;;;15.30;99.90;;;;;;5000060;28;20540;-78
2023/08/28 07:07:46;;;;;;;7.10;6.53;;;15.20;99.90;;;;;;4996899;28;20972;-79
2023/08/28 07:10:14;;;;;;;8.57;7.80;;;15.30;99.90;;;;;;5001502;28;20455;-79
2023/08/28 07:12:45;;;;;;;8.10;7.50;;;15.30;99.90;;;;;;5003878;28;20821;-79
2023/08/28 07:15:56;;;;;;;8.80;8.00;;;15.20;99.90;;;;;;5006028;28;20456;-81
2023/08/28 07:18:25;;;;;;;8.00;7.27;;;15.20;99.90;;;;;;4965957;28;20458;-79
2023/08/28 07:20:55;;;;;;;8.27;7.67;;;15.30;99.90;;;;;;4998511;28;20515;-81
2023/08/28 07:23:29;;;;;;;8.00;7.30;;;15.30;99.90;;;;;;5001001;28;20448;-81
2023/08/28 07:26:04;;;;;;;7.90;7.30;;;15.30;99.90;;;;;;5008859;28;20482;-79
2023/08/28 07:28:42;;;;;;;7.30;6.70;;;15.40;99.90;;;;;;5011098;28;20448;-80
2023/08/28 07:31:12;;;;;;;6.30;5.80;;;15.50;99.90;;;;;;5006034;28;20540;-79
2023/08/28 07:33:45;;;;;;;6.90;6.40;;;15.50;99.90;;;;;;5000928;28;20437;-79
2023/08/28 07:36:16;;;;;;;7.30;6.10;;;15.50;99.90;;;;;;4997610;28;20465;-82
2023/08/28 07:38:45;;;;;;;6.40;5.80;;;15.50;99.90;;;;;;5009953;28;20468;-78
2023/08/28 07:41:20;;;;;;;5.40;5.00;;;15.50;99.90;;;;;;5012607;28;20456;-80
2023/08/28 07:43:48;;;;;;;5.63;5.13;;;15.40;99.90;;;;;;5010543;28;20455;-80
2023/08/28 07:46:19;;;;;;;5.37;4.87;;;15.50;99.90;;;;;;5011861;28;20510;-80
2023/08/28 07:48:49;;;;;;;6.20;5.80;;;15.60;99.90;;;;;;5014230;28;20467;-79
2023/08/28 07:51:23;;;;;;;7.43;5.37;;;15.60;99.90;;;;;;5016843;28;20479;-82
2023/08/28 07:53:57;;;;;;;5.80;5.40;;;15.90;99.90;;;;;;5012700;28;20473;-77
2023/08/28 07:56:32;;;;;;;5.87;5.37;;;15.70;99.90;;;;;;5008991;28;20543;-81
2023/08/28 07:59:00;;;;;;;5.90;5.50;;;15.80;99.90;;;;;;5008791;28;20827;-80
2023/08/28 08:01:37;;;;;;;8.50;5.90;;;15.90;99.90;;;;;;5002031;28;20550;-79
2023/08/28 08:04:17;;;;;;;5.40;4.80;;;15.90;99.90;;;;;;4999144;28;20955;-81
2023/08/28 08:06:56;;;;;;;6.13;5.53;;;15.90;99.90;;;;;;4999419;28;20488;-80
2023/08/28 08:09:28;;;;;;;6.10;5.60;;;15.80;99.90;;;;;;4999050;28;20444;-79
2023/08/28 08:12:03;;;;;;;4.83;4.30;;;15.90;99.90;;;;;;5000763;28;20612;-79
2023/08/28 08:14:34;;;;;;;5.13;4.30;;;15.90;99.90;;;;;;4999501;28;20455;-81
2023/08/28 08:17:12;;;;;;;4.77;4.37;;;15.90;99.90;;;;;;4998998;28;20468;-78
2023/08/28 08:19:50;;;;;;;5.87;4.23;;;16.00;99.90;;;;;;5000378;28;20527;-80
2023/08/28 08:22:18;;;;;;;4.80;4.40;;;16.10;99.90;;;;;;5000326;28;20467;-79
2023/08/28 08:24:48;;;;;;;3.97;3.70;;;16.10;99.90;;;;;;5008001;28;20480;-80
2023/08/28 08:27:39;;;;;;;4.60;3.77;;;16.20;99.90;;;;;;5010904;28;20487;-78
2023/08/28 08:30:25;;;;;;;4.00;3.70;;;16.30;99.90;;;;;;5010698;28;20448;-79
2023/08/28 08:33:03;;;;;;;3.80;3.50;;;16.20;99.90;;;;;;5012880;28;20456;-80
2023/08/28 08:35:46;;;;;;;3.70;3.50;;;16.20;99.90;;;;;;5014513;28;20881;-79
2023/08/28 08:38:16;;;;;;;3.77;3.47;;;16.20;99.90;;;;;;5014976;28;20471;-83
2023/08/28 08:41:12;;;;;;;2.97;2.83;;;16.20;99.90;;;;;;5015447;28;20456;-81
2023/08/28 08:43:49;;;;;;;4.80;3.07;;;16.20;99.90;;;;;;5013657;28;20484;-80
2023/08/28 08:46:36;;;;;;;5.07;2.67;;;16.20;99.90;;;;;;5012524;28;20484;-81
2023/08/28 08:49:38;;;;;;;2.60;2.40;;;16.40;99.90;;;;;;5011717;28;20483;-81
2023/08/28 08:52:38;;;;;;;2.73;2.53;;;16.30;99.90;;;;;;5004525;28;20455;-83
2023/08/28 08:55:19;;;;;;;2.90;2.67;;;16.40;99.90;;;;;;5002879;28;20460;-79
2023/08/28 08:58:13;;;;;;;2.87;2.77;;;16.30;99.90;;;;;;5000927;28;20530;-79
2023/08/28 09:00:59;;;;;;;3.00;2.80;;;16.40;99.90;;;;;;4991041;28;20471;-81
2023/08/28 09:03:37;;;;;;;2.83;2.63;;;16.40;99.90;;;;;;4999928;28;20452;-81
2023/08/28 09:06:12;;;;;;;3.00;2.70;;;16.40;99.90;;;;;;5001545;28;20502;-81
2023/08/28 09:08:54;;;;;;;2.90;2.70;;;16.40;99.90;;;;;;5000301;28;20456;-80
2023/08/28 09:11:40;;;;;;;;;;;;;;;;;;;;;
2023/08/28 09:14:23;;;;;;;2.83;2.63;;;16.60;99.90;;;;;;4999688;28;20455;-80
2023/08/28 09:16:55;;;;;;;3.43;2.47;;;16.60;99.90;;;;;;5000268;28;20478;-81
2023/08/28 09:19:31;;;;;;;3.90;2.47;;;16.60;99.90;;;;;;5000279;28;20491;-79
2023/08/28 09:22:15;;;;;;;3.93;2.43;;;16.70;99.90;;;;;;4999196;28;20471;-78
2023/08/28 09:24:48;;;;;;;2.60;2.40;;;16.80;99.90;;;;;;4979701;28;20511;-81
2023/08/28 09:27:16;;;;;;;3.00;2.73;;;16.80;99.90;;;;;;4979043;28;20492;-80
2023/08/28 09:29:44;;;;;;;2.20;2.10;;;16.80;99.90;;;;;;4979570;28;20516;-80
2023/08/28 09:32:17;;;;;;;3.17;2.40;;;16.90;99.90;;;;;;4981306;28;20453;-79
2023/08/28 09:34:47;;;;;;;2.60;2.50;;;16.90;99.90;;;;;;4977308;28;20516;-79
2023/08/28 09:37:16;;;;;;;2.43;2.23;;;16.90;99.90;;;;;;4979365;28;20450;-80
2023/08/28 09:40:04;;;;;;;2.47;2.37;;;16.80;99.90;;;;;;4979068;28;20438;-80
2023/08/28 09:42:44;;;;;;;2.43;2.23;;;16.70;99.90;;;;;;4978253;28;20465;-80
2023/08/28 09:45:13;;;;;;;3.50;2.60;;;16.90;99.90;;;;;;4977722;28;20511;-79
2023/08/28 09:51:09;;;;;;;2.83;2.53;;;17.00;99.90;;;;;;4978268;28;20420;-79
2023/08/28 09:56:52;;;;;;;2.33;2.10;;;16.90;99.90;;;;;;4981561;28;20532;-80
2023/08/28 09:59:38;;;;;;;2.77;2.57;;;16.90;99.90;;;;;;4985987;28;20453;-80
2023/08/28 10:02:39;;;;;;;5.10;4.60;;;17.00;99.90;;;;;;4984019;28;20464;-80
2023/08/28 10:05:20;;;;;;;2.00;1.90;;;17.30;99.90;;;;;;4982929;28;20457;-80
2023/08/28 10:07:52;;;;;;;2.33;2.13;;;17.80;99.90;;;;;;4983938;28;20643;-80
2023/08/28 10:10:24;;;;;;;2.00;1.77;;;17.90;99.90;;;;;;4983485;28;20453;-79
2023/08/28 10:12:55;;;;;;;2.37;2.17;;;17.90;99.90;;;;;;4983011;28;20457;-81
2023/08/28 10:15:24;;;;;;;2.10;1.97;;;17.80;99.90;;;;;;4982182;28;20473;-81
2023/08/28 10:17:58;;;;;;;1.90;1.77;;;17.70;99.90;;;;;;4981701;28;20785;-80
2023/08/28 10:20:28;;;;;;;1.80;1.70;;;17.70;99.90;;;;;;4985181;28;20511;-79
2023/08/28 10:23:12;;;;;;;2.07;1.97;;;18.10;99.90;;;;;;4990729;28;20488;-80
2023/08/28 10:25:54;;;;;;;2.20;2.10;;;18.10;99.90;;;;;;5003225;28;20616;-82
2023/08/28 10:28:25;;;;;;;1.63;1.53;;;18.40;99.90;;;;;;5000819;28;20456;-80
2023/08/28 10:31:08;;;;;;;2.00;1.90;;;18.50;99.90;;;;;;5001520;28;20440;-80
2023/08/28 10:33:38;;;;;;;2.20;1.60;;;18.60;99.90;;;;;;4997369;28;20882;-80
2023/08/28 10:36:14;;;;;;;1.70;1.60;;;18.70;99.90;;;;;;5000263;28;20467;-79
2023/08/28 10:38:49;;;;;;;1.87;1.77;;;18.70;99.90;;;;;;5001732;28;20968;-79
2023/08/28 10:41:29;;;;;;;2.00;1.90;;;18.40;99.90;;;;;;4999714;28;20526;-79
2023/08/28 10:46:57;;;;;;;1.67;1.57;;;18.80;99.90;;;;;;4997431;28;20571;-80
2023/08/28 10:49:38;;;;;;;1.90;1.80;;;18.60;99.90;;;;;;4999086;28;20476;-79
2023/08/28 10:52:14;;;;;;;2.30;1.77;;;18.50;99.90;;;;;;5000554;28;20491;-81
2023/08/28 10:57:40;;;;;;;1.67;1.57;;;18.70;99.90;;;;;;4997777;28;20475;-79
2023/08/28 11:00:28;;;;;;;1.83;1.73;;;19.10;99.90;;;;;;5002429;28;20877;-79
2023/08/28 11:03:14;;;;;;;1.40;1.40;;;19.10;99.90;;;;;;5003152;28;20822;-78
2023/08/28 11:09:48;;;;;;;2.00;1.67;;;19.40;99.90;;;;;;4920867;29;20416;-81
2023/08/28 11:13:01;;;;;;;1.50;1.40;;;19.20;99.90;;;;;;4999815;28;20467;-79
2023/08/28 11:15:45;;;;;;;1.77;1.67;;;19.10;99.90;;;;;;4999343;28;20467;-79
2023/08/28 11:18:31;;;;;;;1.47;1.43;;;19.20;99.90;;;;;;5001794;28;20474;-81
2023/08/28 11:21:09;;;;;;;3.30;1.70;;;19.30;99.90;;;;;;5000197;28;20803;-81
2023/08/28 11:23:55;;;;;;;1.80;1.70;;;19.40;99.90;;;;;;4998726;28;20448;-80
2023/08/28 11:26:35;;;;;;;1.90;1.80;;;19.30;99.90;;;;;;4998127;28;20595;-82
2023/08/28 11:29:26;;;;;;;1.63;1.30;;;18.90;99.90;;;;;;4990533;28;20448;-81
2023/08/28 11:31:57;;;;;;;2.70;1.90;;;19.00;99.90;;;;;;4997324;28;20816;-80
2023/08/28 11:34:35;;;;;;;3.97;1.20;;;18.70;99.90;;;;;;4996526;28;20452;-80
2023/08/28 11:37:22;;;;;;;;;;;;;;;;;;;;;
2023/08/28 11:40:08;;;;;;;2.20;1.87;;;18.60;99.90;;;;;;4996356;28;20944;-79
2023/08/28 11:42:44;;;;;;;2.00;1.83;;;18.70;99.90;;;;;;4995097;28;20468;-81
2023/08/28 11:45:31;;;;;;;1.40;1.30;;;18.50;99.90;;;;;;4997115;28;20459;-81
2023/08/28 11:51:01;;;;;;;3.17;1.90;;;18.90;99.90;;;;;;4995899;28;20516;-79
2023/08/28 11:53:42;;;;;;;2.43;1.60;;;18.70;99.90;;;;;;4998044;28;20426;-82
2023/08/28 11:56:21;;;;;;;2.00;1.90;;;18.70;99.90;;;;;;4999053;28;20746;-80
2023/08/28 11:58:50;;;;;;;3.43;1.87;;;18.80;99.90;;;;;;5002044;28;20471;-82
2023/08/28 12:01:57;;;;;;;1.90;1.80;;;18.70;99.90;;;;;;5001696;28;20444;-81
2023/08/28 12:04:38;;;;;;;1.50;1.50;;;18.40;99.90;;;;;;4998396;28;20459;-82
2023/08/28 12:07:23;;;;;;;7.80;2.07;;;18.20;99.90;;;;;;4977737;28;20564;-81
2023/08/28 12:09:55;;;;;;;1.77;1.50;;;18.20;99.90;;;;;;4978939;28;20436;-79
2023/08/28 12:12:39;;;;;;;1.73;1.63;;;18.20;99.90;;;;;;4979160;28;20823;-80
2023/08/28 12:15:24;;;;;;;2.30;1.90;;;18.30;99.90;;;;;;4979906;28;20444;-79
2023/08/28 12:18:32;;;;;;;2.90;1.40;;;18.20;99.90;;;;;;4979473;28;20473;-81
2023/08/28 12:21:29;;;;;;;2.00;1.50;;;18.30;99.90;;;;;;4978860;28;20468;-81
2023/08/28 12:24:06;;;;;;;1.80;1.70;;;18.10;99.90;;;;;;4979780;28;20534;-83
2023/08/28 12:26:43;;;;;;;1.90;1.80;;;18.30;99.90;;;;;;4975196;28;20469;-82
2023/08/28 12:29:11;;;;;;;1.63;1.53;;;18.40;99.90;;;;;;4977530;28;20449;-80
2023/08/28 12:31:47;;;;;;;2.10;1.67;;;18.20;99.90;;;;;;4983047;28;20493;-80
2023/08/28 12:34:22;;;;;;;2.10;1.60;;;18.60;99.90;;;;;;4979249;28;20463;-81
2023/08/28 12:37:08;;;;;;;1.80;1.70;;;18.60;99.90;;;;;;4980047;28;20511;-83
2023/08/28 12:39:47;;;;;;;1.50;1.40;;;18.20;99.90;;;;;;4977599;28;20812;-81
2023/08/28 12:42:30;;;;;;;1.70;1.60;;;18.40;99.90;;;;;;4980586;28;20483;-81
2023/08/28 12:44:58;;;;;;;2.07;1.97;;;18.30;99.90;;;;;;4983661;28;20453;-80
2023/08/28 12:47:27;;;;;;;1.37;1.27;;;18.10;99.90;;;;;;4985932;28;20544;-80
2023/08/28 12:50:04;;;;;;;1.60;1.50;;;18.30;99.90;;;;;;4982982;28;20528;-79
2023/08/28 12:52:33;;;;;;;1.90;1.80;;;18.20;99.90;;;;;;4979565;28;20483;-83
2023/08/28 12:55:00;;;;;;;1.93;1.83;;;18.20;99.90;;;;;;4978886;28;20441;-83
2023/08/28 12:57:28;;;;;;;1.97;1.80;;;18.10;99.90;;;;;;4981285;28;20476;-83
2023/08/28 13:00:24;;;;;;;3.07;1.67;;;18.10;99.90;;;;;;4982528;28;20468;-79
2023/08/28 13:02:52;;;;;;;3.40;2.50;;;18.10;99.90;;;;;;4979844;28;20488;-81
2023/08/28 13:05:25;;;;;;;4.13;2.00;;;18.20;99.90;;;;;;4981292;28;20465;-82
2023/08/28 13:08:06;;;;;;;1.63;1.53;;;18.10;99.90;;;;;;4979543;28;20485;-81
2023/08/28 13:10:41;;;;;;;1.93;1.83;;;18.00;99.90;;;;;;4981577;28;20508;-82
2023/08/28 13:13:29;;;;;;;1.77;1.67;;;18.00;99.90;;;;;;4981863;28;20899;-80
2023/08/28 13:16:06;;;;;;;1.70;1.60;;;18.00;99.90;;;;;;4981854;28;20460;-80
2023/08/28 13:18:39;;;;;;;4.50;1.53;;;18.10;99.90;;;;;;4983470;28;20966;-79
2023/08/28 13:21:24;;;;;;;2.20;1.57;;;18.10;99.90;;;;;;4985846;28;20438;-80
2023/08/28 13:24:18;;;;;;;1.83;1.60;;;17.90;99.90;;;;;;4999032;28;20891;-82
2023/08/28 13:26:55;;;;;;;1.50;1.50;;;17.90;99.90;;;;;;5010483;28;20468;-79
2023/08/28 13:29:29;;;;;;;1.50;1.40;;;17.80;99.90;;;;;;5009281;28;20834;-79
2023/08/28 13:32:07;;;;;;;6.13;2.23;;;18.00;99.90;;;;;;5006949;28;20463;-79
2023/08/28 13:34:56;;;;;;;1.77;1.73;;;17.80;99.90;;;;;;5007422;28;20452;-80
2023/08/28 13:37:36;;;;;;;2.10;1.90;;;17.70;99.90;;;;;;5006221;28;20484;-81
2023/08/28 13:40:17;;;;;;;1.77;1.67;;;17.70;99.90;;;;;;5000748;28;20838;-80
2023/08/28 13:42:48;;;;;;;1.60;1.60;;;17.80;99.90;;;;;;4999120;28;20456;-79
2023/08/28 13:45:32;;;;;;;1.40;1.30;;;17.70;99.90;;;;;;4997659;28;20508;-79
2023/08/28 13:48:10;;;;;;;1.13;1.03;;;17.70;99.90;;;;;;4997642;28;20476;-80
2023/08/28 13:50:41;;;;;;;1.27;1.13;;;17.70;99.90;;;;;;4996520;28;20459;-78
2023/08/28 13:53:28;;;;;;;2.20;1.30;;;17.70;99.90;;;;;;4999096;28;20709;-81
2023/08/28 14:01:50;;;;;;;1.57;1.40;;;17.80;99.90;;;;;;4981784;28;20456;-79
2023/08/28 14:04:50;;;;;;;1.67;1.30;;;17.80;99.90;;;;;;4996328;28;20479;-81
2023/08/28 14:07:39;;;;;;;1.50;1.40;;;17.80;99.90;;;;;;4966999;28;20567;-80
2023/08/28 14:10:12;;;;;;;1.40;1.30;;;17.70;99.90;;;;;;4976972;28;20453;-79
2023/08/28 14:12:49;;;;;;;1.37;1.27;;;17.90;99.90;;;;;;4980199;28;20535;-79
2023/08/28 14:15:20;;;;;;;1.43;1.43;;;17.70;99.90;;;;;;4978498;28;20556;-81
2023/08/28 14:17:51;;;;;;;1.67;1.57;;;17.70;99.90;;;;;;4979155;28;20474;-79
2023/08/28 14:20:26;;;;;;;1.20;1.10;;;17.80;99.90;;;;;;4978614;28;20449;-80